createdAt,value
2018-09-28T00:01:23.486Z,1.70
2018-09-28T00:03:51.056Z,1.87
2018-09-28T00:06:19.058Z,1.40
2018-09-28T00:08:46.718Z,1.23
2018-09-28T00:11:14.291Z,1.83
2018-09-28T00:13:42.154Z,1.87
2018-09-28T00:16:09.829Z,1.77
2018-09-28T00:18:37.390Z,1.47
2018-09-28T00:21:05.176Z,1.27
2018-09-28T00:23:32.714Z,2.47
2018-09-28T00:26:00.297Z,1.50
2018-09-28T00:28:28.071Z,1.33
2018-09-28T00:30:56.072Z,1.73
2018-09-28T00:33:23.675Z,1.30
2018-09-28T00:35:51.211Z,1.30
2018-09-28T00:38:18.791Z,1.60
2018-09-28T00:40:46.674Z,1.43
2018-09-28T00:43:14.275Z,1.63
2018-09-28T00:45:41.770Z,1.57
2018-09-28T00:48:09.615Z,1.43
2018-09-28T00:50:37.178Z,1.50
2018-09-28T00:53:05.042Z,1.70
2018-09-28T00:55:32.597Z,1.33
2018-09-28T00:58:00.171Z,1.80
2018-09-28T01:00:27.739Z,1.53
2018-09-28T01:02:55.289Z,2.43
2018-09-28T01:05:22.858Z,1.37
2018-09-28T01:07:50.793Z,1.40
2018-09-28T01:10:18.319Z,1.60
2018-09-28T01:12:45.897Z,1.97
2018-09-28T01:15:13.495Z,1.50
2018-09-28T01:17:41.065Z,1.80
2018-09-28T01:20:08.682Z,1.70
2018-09-28T01:22:36.542Z,1.70
2018-09-28T01:25:04.126Z,2.07
2018-09-28T01:27:31.658Z,1.60
2018-09-28T01:29:59.540Z,2.00
2018-09-28T01:32:27.590Z,1.77
2018-09-28T01:34:55.111Z,2.00
2018-09-28T01:37:22.866Z,1.60
2018-09-28T01:39:50.451Z,1.73
2018-09-28T01:42:18.022Z,2.50
2018-09-28T01:44:45.970Z,2.07
2018-09-28T01:47:13.553Z,1.40
2018-09-28T01:49:41.086Z,1.80
2018-09-28T01:52:09.062Z,1.40
2018-09-28T01:54:36.675Z,3.07
2018-09-28T01:57:04.204Z,2.77
2018-09-28T01:59:31.759Z,1.87
2018-09-28T02:01:59.320Z,1.60
2018-09-28T02:04:27.139Z,2.70
2018-09-28T02:06:54.636Z,1.93
2018-09-28T02:09:22.253Z,2.40
2018-09-28T02:11:50.309Z,1.37
2018-09-28T02:14:27.534Z,1.93
2018-09-28T02:16:55.807Z,4.53
2018-09-28T02:19:23.880Z,1.60
2018-09-28T02:21:51.512Z,1.60
2018-09-28T02:24:19.388Z,2.10
2018-09-28T02:26:47.047Z,1.50
2018-09-28T02:29:14.668Z,1.57
2018-09-28T02:31:42.322Z,1.90
2018-09-28T02:34:09.938Z,2.17
2018-09-28T02:36:37.633Z,1.87
2018-09-28T02:39:05.982Z,1.83
2018-09-28T02:41:33.785Z,2.70
2018-09-28T02:44:01.473Z,8.27
2018-09-28T02:46:29.721Z,6.57
2018-09-28T02:48:57.444Z,4.67
2018-09-28T02:51:25.081Z,2.57
2018-09-28T02:53:53.125Z,3.03
2018-09-28T02:56:20.763Z,1.77
2018-09-28T02:58:48.427Z,1.70
2018-09-28T03:01:16.333Z,2.43
2018-09-28T03:03:44.049Z,1.80
2018-09-28T03:06:11.758Z,3.20
2018-09-28T03:08:39.432Z,3.47
2018-09-28T03:11:07.116Z,2.60
2018-09-28T03:13:34.973Z,2.77
2018-09-28T03:16:02.664Z,1.90
2018-09-28T03:18:30.274Z,2.93
2018-09-28T03:20:58.609Z,3.37
2018-09-28T03:23:26.259Z,1.63
2018-09-28T03:25:53.901Z,2.73
2018-09-28T03:28:22.002Z,3.10
2018-09-28T03:30:49.979Z,2.03
2018-09-28T03:33:17.708Z,2.07
2018-09-28T03:35:45.393Z,1.67
2018-09-28T03:38:13.056Z,4.37
2018-09-28T03:40:40.858Z,3.37
2018-09-28T03:43:08.469Z,3.80
2018-09-28T03:45:36.129Z,3.17
2018-09-28T03:48:03.921Z,3.10
2018-09-28T03:50:31.586Z,2.67
2018-09-28T03:52:59.250Z,3.30
2018-09-28T03:55:26.921Z,2.80
2018-09-28T03:57:54.555Z,2.07
2018-09-28T04:00:22.215Z,2.00
2018-09-28T04:02:50.147Z,2.33
2018-09-28T04:05:17.730Z,3.17
2018-09-28T04:07:45.427Z,3.40
2018-09-28T04:10:13.374Z,4.03
2018-09-28T04:12:41.004Z,6.33
2018-09-28T04:15:08.668Z,8.93
2018-09-28T04:17:36.321Z,7.13
2018-09-28T04:20:04.090Z,8.00
2018-09-28T04:22:31.701Z,8.47
2018-09-28T04:24:59.478Z,4.17
2018-09-28T04:27:27.080Z,5.20
2018-09-28T04:29:54.730Z,5.23
2018-09-28T04:32:22.673Z,5.30
2018-09-28T04:34:50.786Z,4.03
2018-09-28T04:37:18.960Z,4.80
2018-09-28T04:39:46.760Z,3.33
2018-09-28T04:42:14.397Z,3.47
2018-09-28T04:44:42.039Z,3.47
2018-09-28T04:47:09.977Z,4.63
2018-09-28T04:52:12.971Z,5.03
2018-09-28T04:54:40.641Z,3.63
2018-09-28T04:57:08.269Z,3.93
2018-09-28T04:59:36.849Z,5.07
2018-09-28T05:02:04.603Z,4.30
2018-09-28T05:04:32.267Z,3.67
2018-09-28T05:07:00.029Z,2.90
2018-09-28T05:09:27.673Z,3.37
2018-09-28T05:11:55.320Z,4.13
2018-09-28T05:14:23.357Z,3.27
2018-09-28T05:16:51.048Z,4.10
2018-09-28T05:19:18.702Z,6.00
2018-09-28T05:21:46.606Z,7.63
2018-09-28T05:24:14.248Z,4.90
2018-09-28T05:26:41.938Z,3.90
2018-09-28T05:29:09.885Z,5.90
2018-09-28T05:31:37.582Z,4.20
2018-09-28T05:34:05.295Z,3.73
2018-09-28T05:36:33.265Z,3.33
2018-09-28T05:39:01.002Z,5.57
2018-09-28T05:41:28.585Z,3.93
2018-09-28T05:43:56.130Z,5.37
2018-09-28T05:46:23.902Z,2.90
2018-09-28T05:48:51.485Z,4.20
2018-09-28T05:51:19.309Z,6.13
2018-09-28T05:53:47.024Z,5.03
2018-09-28T05:56:14.590Z,4.97
2018-09-28T05:58:47.965Z,3.80
2018-09-28T06:01:21.978Z,4.20
2018-09-28T06:04:56.747Z,3.30
2018-09-28T06:07:24.291Z,7.60
2018-09-28T06:09:51.923Z,4.73
2018-09-28T06:12:19.708Z,4.33
2018-09-28T06:14:47.250Z,4.67
2018-09-28T06:17:14.770Z,3.70
2018-09-28T06:19:42.750Z,4.00
2018-09-28T06:22:10.307Z,4.03
2018-09-28T06:24:37.798Z,5.37
2018-09-28T06:27:05.990Z,3.10
2018-09-28T06:29:33.559Z,4.60
2018-09-28T06:32:01.358Z,3.40
2018-09-28T06:34:29.147Z,3.90
2018-09-28T06:36:57.178Z,3.93
2018-09-28T06:39:24.727Z,3.20
2018-09-28T06:41:52.524Z,3.53
2018-09-28T06:44:19.994Z,5.10
2018-09-28T06:46:47.514Z,3.17
2018-09-28T06:49:15.227Z,3.93
2018-09-28T06:51:42.734Z,3.93
2018-09-28T06:54:10.236Z,4.00
2018-09-28T06:56:37.967Z,3.23
2018-09-28T06:59:12.710Z,3.83
2018-09-28T07:01:40.276Z,3.70
2018-09-28T07:04:07.789Z,4.90
2018-09-28T07:06:35.369Z,4.00
2018-09-28T07:09:31.683Z,4.43
2018-09-28T07:11:59.397Z,5.20
2018-09-28T07:14:28.118Z,3.60
2018-09-28T07:16:55.929Z,2.87
2018-09-28T07:19:23.486Z,3.50
2018-09-28T07:21:51.010Z,5.47
2018-09-28T07:24:18.643Z,5.27
2018-09-28T07:26:46.127Z,3.67
2018-09-28T07:29:13.841Z,3.83
2018-09-28T07:31:41.419Z,4.13
2018-09-28T07:34:08.914Z,6.60
2018-09-28T07:36:36.760Z,4.23
2018-09-28T07:39:07.983Z,3.50
2018-09-28T07:41:35.955Z,4.10
2018-09-28T07:44:03.536Z,4.00
2018-09-28T07:46:31.228Z,3.30
2018-09-28T07:48:59.136Z,5.70
2018-09-28T07:51:26.647Z,5.93
2018-09-28T07:53:54.189Z,5.10
2018-09-28T07:56:21.991Z,6.53
2018-09-28T07:58:49.595Z,4.77
2018-09-28T08:01:17.099Z,7.97
2018-09-28T08:03:44.949Z,5.83
2018-09-28T08:06:12.440Z,5.70
2018-09-28T08:08:40.084Z,6.00
2018-09-28T08:11:08.814Z,4.77
2018-09-28T08:13:36.417Z,6.53
2018-09-28T08:16:07.912Z,4.93
2018-09-28T08:18:35.586Z,5.23
2018-09-28T08:21:10.045Z,6.77
2018-09-28T08:23:37.698Z,6.80
2018-09-28T08:26:15.239Z,5.63
2018-09-28T08:28:43.058Z,5.33
2018-09-28T08:31:30.714Z,6.90
2018-09-28T08:34:08.058Z,5.83
2018-09-28T08:36:35.622Z,6.70
2018-09-28T08:39:11.094Z,5.30
2018-09-28T08:41:42.754Z,5.60
2018-09-28T08:44:10.325Z,6.23
2018-09-28T08:46:38.067Z,6.07
2018-09-28T08:49:10.554Z,5.93
2018-09-28T08:51:38.329Z,8.27
2018-09-28T08:54:17.837Z,6.00
2018-09-28T08:56:45.430Z,6.73
2018-09-28T08:59:12.963Z,6.83
2018-09-28T09:01:40.497Z,6.77
2018-09-28T09:04:08.246Z,8.10
2018-09-28T09:06:35.838Z,7.40
2018-09-28T09:09:05.657Z,6.43
2018-09-28T09:11:33.175Z,7.67
2018-09-28T09:14:00.719Z,5.97
2018-09-28T09:16:28.490Z,7.53
2018-09-28T09:18:56.009Z,6.37
2018-09-28T09:21:23.515Z,5.47
2018-09-28T09:23:51.971Z,7.53
2018-09-28T09:26:19.508Z,6.83
2018-09-28T09:28:47.063Z,6.97
2018-09-28T09:31:14.874Z,6.57
2018-09-28T09:33:42.413Z,7.77
2018-09-28T09:36:09.963Z,7.40
2018-09-28T09:38:38.015Z,6.90
2018-09-28T09:41:06.211Z,6.00
2018-09-28T09:43:33.726Z,12.03
2018-09-28T09:46:01.707Z,6.77
2018-09-28T09:48:29.251Z,7.23
2018-09-28T09:50:56.962Z,6.30
2018-09-28T09:53:24.753Z,6.00
2018-09-28T09:55:52.320Z,6.60
2018-09-28T09:58:19.868Z,6.23
2018-09-28T10:00:53.185Z,6.10
2018-09-28T10:03:26.664Z,5.73
2018-09-28T10:05:54.748Z,6.97
2018-09-28T10:08:22.319Z,8.57
2018-09-28T10:10:49.841Z,6.60
2018-09-28T10:13:17.645Z,5.97
2018-09-28T10:15:45.199Z,6.93
2018-09-28T10:18:12.742Z,6.87
2018-09-28T10:20:40.310Z,7.57
2018-09-28T10:23:07.845Z,7.60
2018-09-28T10:25:35.383Z,6.70
2018-09-28T10:28:03.229Z,6.53
2018-09-28T10:30:30.795Z,6.77
2018-09-28T10:32:58.270Z,7.80
2018-09-28T10:35:26.110Z,6.10
2018-09-28T10:37:53.753Z,5.60
2018-09-28T10:40:21.387Z,7.37
2018-09-28T10:42:49.129Z,5.73
2018-09-28T10:45:17.963Z,7.03
2018-09-28T10:47:45.506Z,5.67
2018-09-28T10:50:13.562Z,7.47
2018-09-28T10:52:41.316Z,8.23
2018-09-28T10:55:08.807Z,5.93
2018-09-28T10:57:36.419Z,5.10
2018-09-28T11:00:04.237Z,5.40
2018-09-28T11:02:31.741Z,4.37
2018-09-28T11:04:59.580Z,5.90
2018-09-28T11:07:27.128Z,5.27
2018-09-28T11:09:54.675Z,4.03
2018-09-28T11:12:22.227Z,4.40
2018-09-28T11:14:50.041Z,3.53
2018-09-28T11:17:17.647Z,5.00
2018-09-28T11:19:45.170Z,3.17
2018-09-28T11:22:12.803Z,3.73
2018-09-28T11:24:40.370Z,4.57
2018-09-28T11:27:07.929Z,3.20
2018-09-28T11:29:35.635Z,3.10
2018-09-28T11:32:03.494Z,3.13
2018-09-28T11:34:31.028Z,2.93
2018-09-28T11:36:58.824Z,3.00
2018-09-28T11:39:26.383Z,3.80
2018-09-28T11:41:53.898Z,3.77
2018-09-28T11:44:21.682Z,3.87
2018-09-28T11:46:49.714Z,3.43
2018-09-28T11:49:17.317Z,2.80
2018-09-28T11:51:44.802Z,2.93
2018-09-28T11:54:12.934Z,2.40
2018-09-28T11:56:40.453Z,2.90
2018-09-28T11:59:08.263Z,3.23
2018-09-28T12:01:35.796Z,1.80
2018-09-28T12:04:03.330Z,1.57
2018-09-28T12:06:31.347Z,2.50
2018-09-28T12:08:58.840Z,2.33
2018-09-28T12:11:26.387Z,2.83
2018-09-28T12:13:54.031Z,1.30
2018-09-28T12:16:21.548Z,2.73
2018-09-28T12:18:49.226Z,1.57
2018-09-28T12:21:17.107Z,2.60
2018-09-28T12:23:44.711Z,1.70
2018-09-28T12:26:12.247Z,3.80
2018-09-28T12:28:39.953Z,2.37
2018-09-28T12:31:07.917Z,1.83
2018-09-28T12:33:35.530Z,2.73
2018-09-28T12:36:03.149Z,2.67
2018-09-28T12:38:30.670Z,3.07
2018-09-28T12:40:58.214Z,2.57
2018-09-28T12:43:25.804Z,3.03
2018-09-28T12:45:53.378Z,2.23
2018-09-28T12:48:21.562Z,2.43
2018-09-28T12:50:49.254Z,2.63
2018-09-28T12:53:16.725Z,2.13
2018-09-28T12:55:44.397Z,2.83
2018-09-28T12:58:12.178Z,2.13
2018-09-28T13:00:39.727Z,5.63
2018-09-28T13:03:07.286Z,3.40
2018-09-28T13:05:34.943Z,4.17
2018-09-28T13:08:02.531Z,2.77
2018-09-28T13:10:30.073Z,4.03
2018-09-28T13:12:57.848Z,2.50
2018-09-28T13:15:25.379Z,2.80
2018-09-28T13:17:52.927Z,3.83
2018-09-28T13:20:20.701Z,4.83
2018-09-28T13:22:48.223Z,3.80
2018-09-28T13:25:15.876Z,4.10
2018-09-28T13:27:43.416Z,2.40
2018-09-28T13:30:25.358Z,4.40
2018-09-28T13:33:12.764Z,3.73
2018-09-28T13:35:40.316Z,3.23
2018-09-28T13:38:07.902Z,4.07
2018-09-28T13:40:35.805Z,4.93
2018-09-28T13:43:03.349Z,3.63
2018-09-28T13:45:30.881Z,4.57
2018-09-28T13:47:58.566Z,3.63
2018-09-28T13:50:26.788Z,4.40
2018-09-28T13:52:54.403Z,3.97
2018-09-28T13:55:22.200Z,3.53
2018-09-28T13:57:49.796Z,3.67
2018-09-28T14:00:17.344Z,3.93
2018-09-28T14:02:45.062Z,4.10
2018-09-28T14:05:12.650Z,4.23
2018-09-28T14:07:40.282Z,4.53
2018-09-28T14:10:08.418Z,4.00
2018-09-28T14:12:35.985Z,3.40
2018-09-28T14:15:03.710Z,4.07
2018-09-28T14:17:31.333Z,4.03
2018-09-28T14:19:58.945Z,4.50
2018-09-28T14:22:26.998Z,5.50
2018-09-28T14:24:54.456Z,5.43
2018-09-28T14:27:22.341Z,4.70
2018-09-28T14:29:49.933Z,4.47
2018-09-28T14:32:17.553Z,5.03
2018-09-28T14:34:45.278Z,4.43
2018-09-28T14:37:17.919Z,4.67
2018-09-28T14:39:45.470Z,5.47
2018-09-28T14:42:13.117Z,4.17
2018-09-28T14:44:41.101Z,5.20
2018-09-28T14:47:08.703Z,4.83
2018-09-28T14:49:36.796Z,4.43
2018-09-28T14:52:04.686Z,7.37
2018-09-28T14:54:32.519Z,4.93
2018-09-28T14:57:00.540Z,3.87
2018-09-28T14:59:28.326Z,3.40
2018-09-28T15:01:55.857Z,5.53
2018-09-28T15:04:24.841Z,3.80
2018-09-28T15:06:52.416Z,4.87
2018-09-28T15:09:19.867Z,3.73
2018-09-28T15:11:47.614Z,3.70
2018-09-28T15:14:15.405Z,3.83
2018-09-28T15:16:43.030Z,3.23
2018-09-28T15:19:10.581Z,3.97
2018-09-28T15:21:38.573Z,4.37
2018-09-28T15:24:06.234Z,3.20
2018-09-28T15:26:34.955Z,3.10
2018-09-28T15:29:02.961Z,4.17
2018-09-28T15:31:30.590Z,2.57
2018-09-28T15:33:58.615Z,3.13
2018-09-28T15:36:27.593Z,2.47
2018-09-28T15:38:55.119Z,2.37
2018-09-28T15:41:23.135Z,4.10
2018-09-28T15:43:50.818Z,1.40
2018-09-28T15:46:18.435Z,3.57
2018-09-28T15:48:46.343Z,1.97
2018-09-28T15:51:15.122Z,1.93
2018-09-28T15:53:42.760Z,2.93
2018-09-28T15:56:10.821Z,2.10
2018-09-28T15:58:38.773Z,1.50
2018-09-28T16:01:06.363Z,3.23
2018-09-28T16:03:34.103Z,2.80
2018-09-28T16:06:01.684Z,2.07
2018-09-28T16:08:29.311Z,1.80
2018-09-28T16:10:57.213Z,2.60
2018-09-28T16:13:24.713Z,2.77
2018-09-28T16:15:52.396Z,4.90
2018-09-28T16:18:20.197Z,2.73
2018-09-28T16:20:47.796Z,4.20
2018-09-28T16:23:15.342Z,2.67
2018-09-28T16:25:43.195Z,3.20
2018-09-28T16:28:10.748Z,3.67
2018-09-28T16:30:38.249Z,3.97
2018-09-28T16:33:06.309Z,3.70
2018-09-28T16:35:33.857Z,3.43
2018-09-28T16:38:01.403Z,2.83
2018-09-28T16:40:29.430Z,2.73
2018-09-28T16:42:56.989Z,2.40
2018-09-28T16:45:24.557Z,3.00
2018-09-28T16:47:52.251Z,4.40
2018-09-28T16:50:19.916Z,3.50
2018-09-28T16:52:48.614Z,2.37
2018-09-28T16:55:16.324Z,3.87
2018-09-28T16:57:44.069Z,3.40
2018-09-28T17:00:11.683Z,4.63
2018-09-28T17:02:39.298Z,2.90
2018-09-28T17:05:06.885Z,2.87
2018-09-28T17:07:34.811Z,3.50
2018-09-28T17:10:02.390Z,2.70
2018-09-28T17:12:30.036Z,2.83
2018-09-28T17:14:58.472Z,2.77
2018-09-28T17:17:26.156Z,3.93
2018-09-28T17:19:53.769Z,2.53
2018-09-28T17:22:21.523Z,1.77
2018-09-28T17:24:49.152Z,4.30
2018-09-28T17:27:16.706Z,4.90
2018-09-28T17:29:45.019Z,2.73
2018-09-28T17:32:12.719Z,1.83
2018-09-28T17:34:40.335Z,2.33
2018-09-28T17:37:08.406Z,1.83
2018-09-28T17:39:45.945Z,2.93
2018-09-28T17:42:13.788Z,3.97
2018-09-28T17:44:41.395Z,2.80
2018-09-28T17:47:09.039Z,2.37
2018-09-28T17:49:36.889Z,2.70
2018-09-28T17:52:12.511Z,2.20
2018-09-28T17:54:40.992Z,3.77
2018-09-28T17:57:08.658Z,4.40
2018-09-28T17:59:36.261Z,2.20
2018-09-28T18:02:10.834Z,2.63
2018-09-28T18:04:38.370Z,2.73
2018-09-28T18:07:13.584Z,1.73
2018-09-28T18:09:41.249Z,2.87
2018-09-28T18:12:24.947Z,3.77
2018-09-28T18:14:52.526Z,3.20
2018-09-28T18:17:20.134Z,2.87
2018-09-28T18:19:47.767Z,4.27
2018-09-28T18:22:15.390Z,3.10
2018-09-28T18:24:42.999Z,4.20
2018-09-28T18:27:10.636Z,2.10
2018-09-28T18:29:38.192Z,2.00
2018-09-28T18:32:06.001Z,2.43
2018-09-28T18:34:33.530Z,2.73
2018-09-28T18:37:01.048Z,3.63
2018-09-28T18:39:29.019Z,2.83
2018-09-28T18:41:56.589Z,2.97
2018-09-28T18:44:24.085Z,2.43
2018-09-28T18:46:51.928Z,4.30
2018-09-28T18:49:19.512Z,3.40
2018-09-28T18:51:47.111Z,2.30
2018-09-28T18:54:14.906Z,2.80
2018-09-28T18:56:43.638Z,1.80
2018-09-28T18:59:11.157Z,2.60
2018-09-28T19:01:39.160Z,2.60
2018-09-28T19:04:06.817Z,2.43
2018-09-28T19:06:34.369Z,2.53
2018-09-28T19:09:02.499Z,3.47
2018-09-28T19:11:30.065Z,1.97
2018-09-28T19:13:57.672Z,2.13
2018-09-28T19:16:25.569Z,1.90
2018-09-28T19:18:53.213Z,4.20
2018-09-28T19:21:20.872Z,2.27
2018-09-28T19:23:48.426Z,3.80
2018-09-28T19:26:15.965Z,2.23
2018-09-28T19:28:43.513Z,2.40
2018-09-28T19:31:11.088Z,3.20
2018-09-28T19:33:38.651Z,2.00
2018-09-28T19:36:06.915Z,1.43
2018-09-28T19:38:34.489Z,3.13
2018-09-28T19:41:02.085Z,3.17
2018-09-28T19:43:29.838Z,2.10
2018-09-28T19:45:57.431Z,2.57
2018-09-28T19:48:24.986Z,3.83
2018-09-28T19:50:52.755Z,3.20
2018-09-28T19:53:20.376Z,2.23
2018-09-28T19:55:47.956Z,1.87
2018-09-28T19:58:16.367Z,4.23
2018-09-28T20:00:44.254Z,2.13
2018-09-28T20:03:13.253Z,1.23
2018-09-28T20:05:41.257Z,1.50
2018-09-28T20:08:08.905Z,3.20
2018-09-28T20:10:36.685Z,3.10
2018-09-28T20:13:04.585Z,1.90
2018-09-28T20:15:32.218Z,3.80
2018-09-28T20:17:59.895Z,3.20
2018-09-28T20:20:27.725Z,3.33
2018-09-28T20:22:55.376Z,1.73
2018-09-28T20:25:23.150Z,1.80
2018-09-28T20:27:51.008Z,3.43
2018-09-28T20:30:18.703Z,3.30
2018-09-28T20:32:46.420Z,2.17
2018-09-28T20:35:14.399Z,3.20
2018-09-28T20:37:42.098Z,1.63
2018-09-28T20:40:09.786Z,1.30
2018-09-28T20:42:38.049Z,3.30
2018-09-28T20:45:36.752Z,1.80
2018-09-28T20:48:04.549Z,1.93
2018-09-28T20:50:32.355Z,3.40
2018-09-28T20:53:00.047Z,2.63
2018-09-28T20:55:28.251Z,1.63
2018-09-28T20:57:55.941Z,2.87
2018-09-28T21:00:25.328Z,1.83
2018-09-28T21:02:53.513Z,2.90
2018-09-28T21:05:21.250Z,4.63
2018-09-28T21:07:48.854Z,2.50
2018-09-28T21:10:16.881Z,2.67
2018-09-28T21:12:44.525Z,2.57
2018-09-28T21:15:12.178Z,5.13
2018-09-28T21:17:40.047Z,2.20
2018-09-28T21:20:07.684Z,3.03
2018-09-28T21:22:35.462Z,2.70
2018-09-28T21:25:03.165Z,2.33
2018-09-28T21:27:31.590Z,2.47
2018-09-28T21:29:59.238Z,2.40
2018-09-28T21:32:27.028Z,2.53
2018-09-28T21:34:54.685Z,2.33
2018-09-28T21:37:22.333Z,1.13
2018-09-28T21:39:50.213Z,3.53
2018-09-28T21:42:17.855Z,1.33
2018-09-28T21:44:45.523Z,3.40
2018-09-28T21:47:13.483Z,2.53
2018-09-28T21:49:41.197Z,2.60
2018-09-28T21:52:08.847Z,3.00
2018-09-28T21:54:36.542Z,2.27
2018-09-28T21:57:04.235Z,3.57
2018-09-28T21:59:31.871Z,2.40
2018-09-28T22:02:00.107Z,1.93
2018-09-28T22:04:28.101Z,2.87
2018-09-28T22:06:55.780Z,2.30
2018-09-28T22:09:23.429Z,3.00
2018-09-28T22:11:51.995Z,1.50
2018-09-28T22:14:19.672Z,3.40
2018-09-28T22:16:47.393Z,2.60
2018-09-28T22:19:15.137Z,3.33
2018-09-28T22:21:42.810Z,2.40
2018-09-28T22:24:10.534Z,2.33
2018-09-28T22:26:38.622Z,2.63
2018-09-28T22:29:06.321Z,3.00
2018-09-28T22:31:34.065Z,2.83
2018-09-28T22:34:02.049Z,1.97
2018-09-28T22:36:29.693Z,2.73
2018-09-28T22:38:57.386Z,2.90
2018-09-28T22:41:25.353Z,2.70
2018-09-28T22:43:53.143Z,2.07
2018-09-28T22:46:20.746Z,1.57
2018-09-28T22:48:48.476Z,2.07
2018-09-28T22:51:16.161Z,2.43
2018-09-28T22:53:43.781Z,1.63
2018-09-28T22:56:11.662Z,2.17
2018-09-28T22:58:39.324Z,3.13
2018-09-28T23:01:07.200Z,3.27
2018-09-28T23:03:36.102Z,2.50
2018-09-28T23:06:03.766Z,1.50
2018-09-28T23:08:31.900Z,1.67
2018-09-28T23:10:59.525Z,1.83
2018-09-28T23:13:27.201Z,2.30
2018-09-28T23:15:55.244Z,3.33
2018-09-28T23:18:22.878Z,2.03
2018-09-28T23:20:50.509Z,2.07
2018-09-28T23:23:18.256Z,2.47
2018-09-28T23:25:45.950Z,4.30
2018-09-28T23:28:13.879Z,3.53
2018-09-28T23:30:42.010Z,1.70
2018-09-28T23:33:09.655Z,4.00
2018-09-28T23:35:37.300Z,2.07
2018-09-28T23:38:05.181Z,2.83
2018-09-28T23:40:32.813Z,1.97
2018-09-28T23:43:00.485Z,1.90
2018-09-28T23:45:28.383Z,3.23
2018-09-28T23:47:56.046Z,2.53
2018-09-28T23:50:23.728Z,2.73
2018-09-28T23:52:51.593Z,2.10
2018-09-28T23:55:19.225Z,2.77
2018-09-28T23:57:46.871Z,2.63
